Time;durP1;ratioP1;P1;durP2;ratioP2;P2;SDS_P1;SDS_P2;PMS_P1;PMS_P2;Temp;Humidity;BMP_temperature;BMP_pressure;BME280_temperature;BME280_humidity;BME280_pressure;Samples;Min_cycle;Max_cycle;Signal;HPM_P1;HPM_P2
2022/03/31 00:00:40;;;;;;;56.38;25.70;;;7.10;99.90;;;;;;5071215;28;20336;-58
2022/03/31 00:03:08;;;;;;;51.65;30.33;;;7.10;99.90;;;;;;5070341;28;20025;-58
2022/03/31 00:05:34;;;;;;;43.95;26.98;;;7.10;99.90;;;;;;5070865;28;20414;-58
2022/03/31 00:08:03;;;;;;;44.50;25.10;;;7.10;99.90;;;;;;5070640;28;20024;-58
2022/03/31 00:10:40;;;;;;;44.60;27.10;;;7.00;99.90;;;;;;5070311;28;20024;-58
2022/03/31 00:30:45;;;;;;;55.25;27.05;;;7.20;99.90;;;;;;5056472;28;20040;-58
2022/03/31 00:33:11;;;;;;;50.55;27.40;;;7.20;99.90;;;;;;5070519;28;20029;-59
2022/03/31 00:35:37;;;;;;;46.17;25.00;;;7.20;99.90;;;;;;5069805;28;20487;-58
2022/03/31 00:38:02;;;;;;;56.38;27.65;;;7.20;99.90;;;;;;5068900;28;20025;-59
2022/03/31 00:40:31;;;;;;;54.15;29.23;;;7.20;99.90;;;;;;5069291;28;20017;-59
2022/03/31 00:42:57;;;;;;;41.40;25.63;;;7.20;99.90;;;;;;5069195;28;20028;-57
2022/03/31 00:45:33;;;;;;;43.15;28.33;;;7.20;99.90;;;;;;5069441;28;20121;-57
2022/03/31 00:47:59;;;;;;;52.17;26.48;;;7.30;99.90;;;;;;5070492;28;20028;-58
2022/03/31 00:50:26;;;;;;;51.70;25.30;;;7.30;99.90;;;;;;5068999;28;20039;-55
2022/03/31 00:52:52;;;;;;;47.17;27.08;;;7.30;99.90;;;;;;5068749;28;20021;-56
2022/03/31 00:55:19;;;;;;;52.95;27.15;;;7.20;99.90;;;;;;5069260;28;20036;-52
2022/03/31 00:57:46;;;;;;;43.78;24.77;;;7.30;99.90;;;;;;5069668;28;20020;-57
2022/03/31 01:00:17;;;;;;;48.25;25.90;;;7.20;99.90;;;;;;5070303;28;20502;-58
2022/03/31 01:02:44;;;;;;;47.55;26.55;;;7.20;99.90;;;;;;5068643;28;20448;-58
2022/03/31 01:05:11;;;;;;;51.72;28.45;;;7.20;99.90;;;;;;5071087;28;20476;-58
2022/03/31 01:07:38;;;;;;;42.92;25.38;;;7.20;99.90;;;;;;5071051;28;20032;-57
2022/03/31 01:10:05;;;;;;;47.40;26.17;;;7.20;99.90;;;;;;5070140;28;20025;-59
2022/03/31 01:12:32;;;;;;;53.65;28.08;;;7.20;99.90;;;;;;5069659;28;20024;-58
2022/03/31 01:15:06;;;;;;;49.22;27.40;;;7.20;99.90;;;;;;5069609;28;20032;-59
2022/03/31 01:17:34;;;;;;;43.88;25.10;;;7.20;99.90;;;;;;5069695;28;20032;-57
2022/03/31 01:19:59;;;;;;;45.75;25.95;;;7.20;99.90;;;;;;5070680;28;20400;-59
2022/03/31 01:22:30;;;;;;;55.17;24.98;;;7.30;99.90;;;;;;5072610;28;20043;-58
2022/03/31 01:24:56;;;;;;;52.05;24.67;;;7.30;99.90;;;;;;5074263;28;20029;-58
2022/03/31 01:27:23;;;;;;;47.65;26.67;;;7.20;99.90;;;;;;5074295;28;20032;-59
2022/03/31 01:29:49;;;;;;;52.53;26.73;;;7.20;99.90;;;;;;5073930;28;20489;-57
2022/03/31 01:32:14;;;;;;;49.22;27.70;;;7.30;99.90;;;;;;5074411;28;20060;-59
2022/03/31 01:34:40;;;;;;;51.00;27.55;;;7.30;99.90;;;;;;5074167;28;20032;-58
2022/03/31 01:37:07;;;;;;;47.63;28.50;;;7.40;99.90;;;;;;5074119;28;20044;-58
2022/03/31 01:39:32;;;;;;;63.42;29.08;;;7.40;99.90;;;;;;5074090;28;20021;-58
2022/03/31 01:41:58;;;;;;;52.92;28.88;;;7.40;99.90;;;;;;5074030;28;20017;-58
2022/03/31 01:44:24;;;;;;;57.78;28.80;;;7.50;99.90;;;;;;5074255;28;20468;-58
2022/03/31 01:46:50;;;;;;;54.83;28.80;;;7.40;99.90;;;;;;5073947;28;20425;-58
2022/03/31 01:49:15;;;;;;;55.17;26.33;;;7.50;99.90;;;;;;5074121;28;20495;-58
2022/03/31 01:51:41;;;;;;;43.72;26.15;;;7.40;99.90;;;;;;5074134;28;20430;-58
2022/03/31 01:54:07;;;;;;;47.97;29.85;;;7.40;99.90;;;;;;5073790;28;20367;-57
2022/03/31 01:56:34;;;;;;;49.88;27.63;;;7.40;99.90;;;;;;5074097;28;20044;-58
2022/03/31 01:58:59;;;;;;;46.38;26.75;;;7.40;99.90;;;;;;5072389;28;20031;-59
2022/03/31 02:01:25;;;;;;;49.30;28.05;;;7.40;99.90;;;;;;5073914;28;20465;-58
2022/03/31 02:03:51;;;;;;;50.92;26.83;;;7.50;99.90;;;;;;5073743;28;20017;-59
2022/03/31 02:06:16;;;;;;;49.60;27.88;;;7.50;99.90;;;;;;5073817;28;20073;-59
2022/03/31 02:08:42;;;;;;;41.97;25.98;;;7.40;99.90;;;;;;5073815;28;20043;-58
2022/03/31 02:11:08;;;;;;;56.80;30.02;;;7.40;99.90;;;;;;5073598;28;20029;-59
2022/03/31 02:13:34;;;;;;;39.95;26.48;;;7.40;99.90;;;;;;5073661;28;20017;-58
2022/03/31 02:16:00;;;;;;;48.03;26.38;;;7.50;99.90;;;;;;5073420;28;20025;-59
2022/03/31 02:18:25;;;;;;;37.47;24.85;;;7.60;99.90;;;;;;5073583;28;20036;-58
2022/03/31 02:20:51;;;;;;;58.38;23.33;;;7.60;99.90;;;;;;5073482;28;20044;-59
2022/03/31 02:23:17;;;;;;;45.05;25.25;;;7.60;99.90;;;;;;5073467;28;20062;-58
2022/03/31 02:25:43;;;;;;;44.15;24.90;;;7.50;99.90;;;;;;5073528;28;20097;-58
2022/03/31 02:28:10;;;;;;;39.38;24.60;;;7.50;99.90;;;;;;5073269;28;20025;-57
2022/03/31 02:30:36;;;;;;;51.72;26.00;;;7.40;99.90;;;;;;5073232;28;20094;-56
2022/03/31 02:33:03;;;;;;;47.83;25.48;;;7.30;99.90;;;;;;5072925;28;20379;-58
2022/03/31 02:35:29;;;;;;;48.15;27.90;;;7.30;99.90;;;;;;5073437;28;20021;-58
2022/03/31 02:37:55;;;;;;;60.88;30.02;;;7.30;99.90;;;;;;5072989;28;20055;-59
2022/03/31 02:40:21;;;;;;;47.58;28.25;;;7.30;99.90;;;;;;5073188;28;20448;-57
2022/03/31 02:42:47;;;;;;;44.47;26.83;;;7.40;99.90;;;;;;5072979;28;20115;-59
2022/03/31 02:45:13;;;;;;;53.85;26.77;;;7.40;99.90;;;;;;5073245;28;20368;-58
2022/03/31 02:47:39;;;;;;;53.00;28.00;;;7.40;99.90;;;;;;5072988;28;20033;-58
2022/03/31 02:50:06;;;;;;;49.38;27.58;;;7.40;99.90;;;;;;5072861;28;20021;-59
2022/03/31 02:55:24;;;;;;;53.45;27.83;;;7.40;99.90;;;;;;5072792;28;20059;-58
2022/03/31 02:55:30;;;;;;;55.38;31.63;;;7.40;99.90;;;;;;5072591;28;20086;-58
2022/03/31 02:58:01;;;;;;;46.03;27.38;;;7.50;99.90;;;;;;5072704;28;20109;-59
2022/03/31 03:00:28;;;;;;;51.63;26.60;;;7.40;99.90;;;;;;5072907;28;20032;-58
2022/03/31 03:02:54;;;;;;;55.75;28.13;;;7.30;99.90;;;;;;5072597;28;20021;-58
2022/03/31 03:05:20;;;;;;;43.15;26.58;;;7.40;99.90;;;;;;5072551;28;20082;-56
2022/03/31 03:07:46;;;;;;;48.22;27.40;;;7.40;99.90;;;;;;5072564;28;20047;-59
2022/03/31 03:10:13;;;;;;;54.42;27.13;;;7.40;99.90;;;;;;5071183;28;20460;-58
2022/03/31 03:12:41;;;;;;;49.35;28.90;;;7.40;99.90;;;;;;5072728;28;20056;-58
2022/03/31 03:15:08;;;;;;;43.05;27.10;;;7.40;99.90;;;;;;5072224;28;20028;-59
2022/03/31 03:17:34;;;;;;;53.33;27.83;;;7.40;99.90;;;;;;5072475;28;20572;-59
2022/03/31 03:19:59;;;;;;;53.95;28.13;;;7.40;99.90;;;;;;5072227;28;20036;-58
2022/03/31 03:22:26;;;;;;;50.80;26.10;;;7.40;99.90;;;;;;5072278;28;20027;-59
2022/03/31 03:24:52;;;;;;;42.75;27.08;;;7.30;99.90;;;;;;5072162;28;20030;-58
2022/03/31 03:27:18;;;;;;;43.83;26.98;;;7.20;99.90;;;;;;5072216;28;20030;-56
2022/03/31 03:29:46;;;;;;;52.25;27.05;;;7.20;99.90;;;;;;5072018;28;20032;-58
2022/03/31 03:32:14;;;;;;;42.35;26.77;;;7.20;99.90;;;;;;5072242;28;20087;-57
2022/03/31 03:34:40;;;;;;;43.63;26.00;;;7.20;99.90;;;;;;5071975;28;20473;-58
2022/03/31 03:37:06;;;;;;;52.78;28.88;;;7.20;99.90;;;;;;5071837;28;20078;-57
2022/03/31 03:39:34;;;;;;;48.08;28.00;;;7.20;99.90;;;;;;5072134;28;20086;-58
2022/03/31 03:42:00;;;;;;;46.47;26.83;;;7.30;99.90;;;;;;5071784;28;20024;-58
2022/03/31 03:44:26;;;;;;;52.42;29.02;;;7.30;99.90;;;;;;5071441;28;20073;-59
2022/03/31 03:46:52;;;;;;;49.45;27.00;;;7.40;99.90;;;;;;5071780;28;20406;-59
2022/03/31 03:49:18;;;;;;;55.95;30.00;;;7.40;99.90;;;;;;5070459;28;20487;-57
2022/03/31 03:51:44;;;;;;;47.53;28.63;;;7.40;99.90;;;;;;5071926;28;20032;-56
2022/03/31 03:54:11;;;;;;;45.00;26.90;;;7.40;99.90;;;;;;5071787;28;20028;-59
2022/03/31 03:56:37;;;;;;;46.30;27.50;;;7.50;99.90;;;;;;5071538;28;20017;-57
2022/03/31 03:59:04;;;;;;;57.42;28.67;;;7.40;99.90;;;;;;5071141;28;20040;-58
2022/03/31 04:01:30;;;;;;;45.45;26.27;;;7.50;99.90;;;;;;5071654;28;20020;-55
2022/03/31 04:03:57;;;;;;;45.35;28.00;;;7.50;99.90;;;;;;5071381;28;20498;-58
2022/03/31 04:06:23;;;;;;;47.33;27.55;;;7.50;99.90;;;;;;5071720;28;20430;-59
2022/03/31 04:08:49;;;;;;;50.05;28.20;;;7.40;99.90;;;;;;5071467;28;20029;-58
2022/03/31 04:11:15;;;;;;;45.65;25.80;;;7.50;99.90;;;;;;5071527;28;20117;-58
2022/03/31 04:13:43;;;;;;;40.63;22.75;;;7.60;99.90;;;;;;5071451;28;20031;-58
2022/03/31 04:16:09;;;;;;;48.53;22.02;;;7.70;99.90;;;;;;5071418;28;20028;-57
2022/03/31 04:18:35;;;;;;;44.10;23.98;;;7.70;99.90;;;;;;5071387;28;20045;-58
2022/03/31 04:21:02;;;;;;;44.38;23.90;;;7.60;99.90;;;;;;5071411;28;20024;-58
2022/03/31 04:23:28;;;;;;;45.78;25.75;;;7.60;99.90;;;;;;5071479;28;20032;-58
2022/03/31 04:25:54;;;;;;;49.05;26.42;;;7.50;99.90;;;;;;5071390;28;20016;-58
2022/03/31 04:28:20;;;;;;;41.00;24.77;;;7.50;99.90;;;;;;5071496;28;20082;-58
2022/03/31 04:30:46;;;;;;;46.78;26.60;;;7.60;99.90;;;;;;5071147;28;20047;-58
2022/03/31 04:33:11;;;;;;;60.67;29.02;;;7.60;99.90;;;;;;5071288;28;20086;-58
2022/03/31 04:35:37;;;;;;;50.58;29.35;;;7.50;99.90;;;;;;5071130;28;20031;-59
2022/03/31 04:38:06;;;;;;;52.08;30.58;;;7.40;99.90;;;;;;5071195;28;20025;-59
2022/03/31 04:40:32;;;;;;;53.25;30.77;;;7.30;99.90;;;;;;5070288;28;20028;-59
2022/03/31 04:42:58;;;;;;;53.45;31.77;;;7.40;99.90;;;;;;5071023;28;20035;-59
2022/03/31 04:45:23;;;;;;;56.28;29.75;;;7.40;99.90;;;;;;5069829;28;20029;-58
2022/03/31 04:47:49;;;;;;;55.45;32.90;;;7.40;99.90;;;;;;5070924;28;20032;-59
2022/03/31 04:50:15;;;;;;;51.13;30.17;;;7.50;99.90;;;;;;5071196;28;20012;-56
2022/03/31 04:52:42;;;;;;;67.88;33.30;;;7.50;99.90;;;;;;5071223;28;20107;-58
2022/03/31 04:55:08;;;;;;;48.60;28.45;;;7.50;99.90;;;;;;5070918;28;20033;-57
2022/03/31 04:57:34;;;;;;;59.67;29.58;;;7.50;99.90;;;;;;5075132;28;20020;-56
2022/03/31 05:00:00;;;;;;;61.17;30.60;;;7.50;99.90;;;;;;5074702;28;20136;-59
2022/03/31 05:02:26;;;;;;;61.67;31.90;;;7.50;99.90;;;;;;5071714;28;20094;-59
2022/03/31 05:04:51;;;;;;;53.42;33.13;;;7.50;99.90;;;;;;5064343;28;20021;-58
2022/03/31 05:07:18;;;;;;;49.88;31.63;;;7.50;99.90;;;;;;5071783;28;20043;-58
2022/03/31 05:09:44;;;;;;;59.60;32.13;;;7.60;99.90;;;;;;5074770;28;20728;-59
2022/03/31 05:12:12;;;;;;;51.92;31.70;;;7.60;99.90;;;;;;5074305;28;20537;-59
2022/03/31 05:14:38;;;;;;;58.25;32.33;;;7.60;99.90;;;;;;5074402;28;20480;-59
2022/03/31 05:17:05;;;;;;;54.30;33.50;;;7.60;99.90;;;;;;5074300;28;20039;-58
2022/03/31 05:19:31;;;;;;;60.00;32.40;;;7.60;99.90;;;;;;5074861;28;20037;-59
2022/03/31 05:21:57;;;;;;;43.38;28.48;;;7.60;99.90;;;;;;5074505;28;20032;-59
2022/03/31 05:24:23;;;;;;;41.75;26.48;;;7.60;99.90;;;;;;5074621;28;20337;-58
2022/03/31 05:26:52;;;;;;;40.80;27.38;;;7.60;99.90;;;;;;5074173;28;20090;-58
2022/03/31 05:29:18;;;;;;;49.15;28.98;;;7.60;99.90;;;;;;5074330;28;20020;-58
2022/03/31 05:31:45;;;;;;;46.38;28.83;;;7.60;99.90;;;;;;5073976;28;20131;-59
2022/03/31 05:34:19;;;;;;;47.85;30.10;;;7.60;99.90;;;;;;5074254;28;20032;-68
2022/03/31 05:36:46;;;;;;;53.33;32.45;;;7.60;99.90;;;;;;5074353;28;20468;-55
2022/03/31 05:39:12;;;;;;;53.88;30.65;;;7.60;99.90;;;;;;5073991;28;20112;-56
2022/03/31 05:41:37;;;;;;;58.95;32.53;;;7.70;99.90;;;;;;5074043;28;20044;-59
2022/03/31 05:44:03;;;;;;;53.80;30.75;;;7.70;99.90;;;;;;5074021;28;20412;-57
2022/03/31 05:46:29;;;;;;;64.72;33.58;;;7.70;99.90;;;;;;5074054;28;20031;-58
2022/03/31 05:48:54;;;;;;;45.90;31.17;;;7.80;99.90;;;;;;5073843;28;20029;-60
2022/03/31 05:51:20;;;;;;;57.40;31.35;;;7.80;99.90;;;;;;5074210;28;20119;-58
2022/03/31 05:53:46;;;;;;;49.55;31.42;;;7.80;99.90;;;;;;5074036;28;20024;-59
2022/03/31 05:56:12;;;;;;;44.72;26.63;;;7.80;99.90;;;;;;5073911;28;20054;-57
2022/03/31 05:58:38;;;;;;;45.90;28.70;;;7.90;99.90;;;;;;5073798;28;20111;-59
2022/03/31 06:01:04;;;;;;;47.10;26.20;;;8.00;99.90;;;;;;5073767;28;20040;-58
2022/03/31 06:03:30;;;;;;;44.40;24.98;;;8.00;99.90;;;;;;5073402;28;20029;-60
2022/03/31 06:05:56;;;;;;;52.53;26.65;;;8.00;99.90;;;;;;5073494;28;20074;-58
2022/03/31 06:08:22;;;;;;;42.42;25.25;;;8.00;99.90;;;;;;5072784;28;20025;-59
2022/03/31 06:10:48;;;;;;;48.50;30.15;;;8.00;99.90;;;;;;5073409;28;20032;-58
2022/03/31 06:13:14;;;;;;;64.93;28.98;;;7.90;99.90;;;;;;5072260;28;20032;-58
2022/03/31 06:15:40;;;;;;;45.60;28.88;;;7.90;99.90;;;;;;5071938;28;20093;-58
2022/03/31 06:18:09;;;;;;;62.25;33.22;;;7.90;99.90;;;;;;5073041;28;20044;-59
2022/03/31 06:20:35;;;;;;;49.90;31.50;;;7.90;99.90;;;;;;5072479;28;20020;-59
2022/03/31 06:23:02;;;;;;;56.08;33.03;;;8.00;99.90;;;;;;5072821;28;20363;-58
2022/03/31 06:25:28;;;;;;;58.00;34.00;;;8.00;99.90;;;;;;5070401;28;20063;-59
2022/03/31 06:27:57;;;;;;;61.95;34.45;;;8.00;99.90;;;;;;5071896;28;20032;-60
2022/03/31 06:30:24;;;;;;;70.35;36.17;;;8.00;99.90;;;;;;5072344;28;20495;-58
2022/03/31 06:32:50;;;;;;;62.67;37.33;;;8.00;99.90;;;;;;5072316;28;20033;-59
2022/03/31 06:35:15;;;;;;;75.18;42.97;;;8.10;99.90;;;;;;5072096;28;20032;-59
2022/03/31 06:37:43;;;;;;;91.82;53.22;;;8.10;99.90;;;;;;5071482;28;20414;-59
2022/03/31 06:40:14;;;;;;;48.33;34.30;;;8.20;99.90;;;;;;5071882;28;20484;-59
2022/03/31 06:42:41;;;;;;;77.25;42.58;;;8.30;99.90;;;;;;5072281;28;20111;-59
2022/03/31 06:45:14;;;;;;;82.90;46.55;;;8.30;99.90;;;;;;5071341;28;20158;-59
2022/03/31 06:47:40;;;;;;;75.72;45.38;;;8.40;99.90;;;;;;5059211;28;20028;-59
2022/03/31 06:50:10;;;;;;;82.22;45.10;;;8.50;99.90;;;;;;5052806;28;20503;-59
2022/03/31 06:52:37;;;;;;;83.45;44.05;;;8.50;99.90;;;;;;5052979;28;20112;-59
2022/03/31 06:55:04;;;;;;;77.45;44.38;;;8.60;99.90;;;;;;5052533;28;20040;-59
2022/03/31 06:57:29;;;;;;;81.18;43.67;;;8.60;99.90;;;;;;5051319;28;20431;-58
2022/03/31 06:59:55;;;;;;;78.82;46.40;;;8.60;99.90;;;;;;5052570;28;20025;-58
2022/03/31 07:02:21;;;;;;;77.03;43.25;;;8.60;99.90;;;;;;5052626;28;20043;-59
2022/03/31 07:04:46;;;;;;;70.18;45.65;;;8.70;99.90;;;;;;5052429;28;20459;-59
2022/03/31 07:07:12;;;;;;;78.28;44.13;;;8.70;99.90;;;;;;5052662;28;20021;-58
2022/03/31 07:09:38;;;;;;;86.93;47.08;;;8.70;99.90;;;;;;5052278;28;20064;-57
2022/03/31 07:12:04;;;;;;;72.97;43.88;;;8.60;99.90;;;;;;5051951;28;20061;-63
2022/03/31 07:14:33;;;;;;;75.22;44.88;;;8.60;99.90;;;;;;5052419;28;20029;-59
2022/03/31 07:16:59;;;;;;;90.18;46.33;;;8.70;99.90;;;;;;5052007;28;20075;-59
2022/03/31 07:19:24;;;;;;;72.65;42.90;;;8.60;99.90;;;;;;5051471;28;20009;-60
2022/03/31 07:21:51;;;;;;;81.03;45.47;;;8.60;99.90;;;;;;5051916;28;20377;-59
2022/03/31 07:24:17;;;;;;;89.15;50.78;;;8.60;99.90;;;;;;5052040;28;20018;-59
2022/03/31 07:26:43;;;;;;;80.80;47.08;;;8.70;99.90;;;;;;5051736;28;20033;-60
2022/03/31 07:29:09;;;;;;;78.20;45.92;;;8.70;99.90;;;;;;5050674;28;20117;-60
2022/03/31 07:31:34;;;;;;;96.30;54.17;;;8.70;99.90;;;;;;5051959;28;20044;-58
2022/03/31 07:34:06;;;;;;;87.38;46.20;;;8.80;99.90;;;;;;5051751;28;20025;-60
2022/03/31 07:36:32;;;;;;;87.10;46.35;;;8.80;99.90;;;;;;5051909;28;20033;-60
2022/03/31 07:38:58;;;;;;;89.05;46.75;;;8.80;99.90;;;;;;5051818;28;20037;-60
2022/03/31 07:41:24;;;;;;;83.18;45.00;;;8.90;99.90;;;;;;5051731;28;20021;-60
2022/03/31 07:43:53;;;;;;;73.80;40.75;;;8.90;99.90;;;;;;5051244;28;20031;-60
2022/03/31 07:46:18;;;;;;;66.78;37.67;;;9.00;99.90;;;;;;5051011;28;20103;-59
2022/03/31 07:48:44;;;;;;;80.65;39.42;;;9.10;99.90;;;;;;5051617;28;20355;-59
2022/03/31 07:51:10;;;;;;;73.43;40.67;;;9.20;99.90;;;;;;5051743;28;20033;-60
2022/03/31 07:53:36;;;;;;;77.80;42.40;;;9.20;99.90;;;;;;5051700;28;20117;-60
2022/03/31 07:56:05;;;;;;;79.47;41.97;;;9.30;99.90;;;;;;5051047;28;20115;-60
2022/03/31 07:58:31;;;;;;;61.83;38.92;;;9.30;99.90;;;;;;5051667;28;20022;-60
2022/03/31 08:00:57;;;;;;;67.63;41.40;;;9.30;99.90;;;;;;5051441;28;20036;-59
2022/03/31 08:03:22;;;;;;;68.10;38.53;;;9.30;99.90;;;;;;5051558;28;20025;-59
2022/03/31 08:05:49;;;;;;;57.47;37.40;;;9.30;99.90;;;;;;5051279;28;20017;-60
2022/03/31 08:08:15;;;;;;;73.32;42.67;;;9.20;99.90;;;;;;5051497;28;20475;-58
2022/03/31 08:10:41;;;;;;;116.97;78.15;;;9.30;99.90;;;;;;5051569;28;20028;-59
2022/03/31 08:13:08;;;;;;;73.45;43.55;;;9.20;99.90;;;;;;5051364;28;20364;-59
2022/03/31 08:15:34;;;;;;;71.65;39.08;;;9.20;99.90;;;;;;5049856;28;20136;-59
2022/03/31 08:18:00;;;;;;;272.33;206.93;;;9.20;99.90;;;;;;5050262;28;20032;-60
2022/03/31 08:20:26;;;;;;;79.50;58.80;;;9.10;99.90;;;;;;5050179;28;20602;-60
2022/03/31 08:22:52;;;;;;;59.72;38.47;;;9.10;99.90;;;;;;5049951;28;20533;-58
2022/03/31 08:25:18;;;;;;;56.13;36.92;;;9.10;99.90;;;;;;5050522;28;20112;-59
2022/03/31 08:27:45;;;;;;;102.63;68.13;;;9.10;99.90;;;;;;5050935;28;20075;-60
2022/03/31 08:30:18;;;;;;;90.20;55.88;;;9.10;99.90;;;;;;5051099;28;20671;-60
2022/03/31 08:32:46;;;;;;;75.32;45.47;;;9.10;99.90;;;;;;5055340;28;20032;-60
2022/03/31 08:35:14;;;;;;;75.00;44.70;;;9.10;99.90;;;;;;5055063;28;20488;-60
2022/03/31 08:37:41;;;;;;;64.55;45.00;;;9.10;99.90;;;;;;5055337;28;20060;-60
2022/03/31 08:40:11;;;;;;;64.93;42.90;;;9.10;99.90;;;;;;5055002;28;20021;-60
2022/03/31 08:42:37;;;;;;;60.38;41.55;;;9.10;99.90;;;;;;5055281;28;20107;-59
2022/03/31 08:45:04;;;;;;;56.38;38.40;;;9.20;99.90;;;;;;5054985;28;20032;-60
2022/03/31 08:47:53;;;;;;;52.63;33.53;;;9.20;99.90;;;;;;5055077;28;20029;-60
2022/03/31 08:50:21;;;;;;;72.97;33.55;;;9.20;99.90;;;;;;5055020;28;20464;-59
2022/03/31 08:52:46;;;;;;;89.07;43.95;;;9.10;99.90;;;;;;5054276;28;20079;-60
2022/03/31 08:55:12;;;;;;;50.13;33.28;;;9.10;99.90;;;;;;5054255;28;20025;-60
2022/03/31 08:57:44;;;;;;;57.42;41.30;;;9.20;99.90;;;;;;5054896;28;20108;-60
2022/03/31 09:00:12;;;;;;;51.53;34.08;;;9.20;99.90;;;;;;5054838;28;20024;-58
2022/03/31 09:02:38;;;;;;;50.53;34.13;;;9.20;99.90;;;;;;5053978;28;20100;-60
2022/03/31 09:05:07;;;;;;;45.90;30.38;;;9.20;99.90;;;;;;5053355;28;20025;-59
2022/03/31 09:07:32;;;;;;;43.08;29.50;;;9.20;99.90;;;;;;5053567;28;20024;-60
2022/03/31 09:09:58;;;;;;;45.30;29.10;;;9.30;99.90;;;;;;5053356;28;20036;-60
2022/03/31 09:12:26;;;;;;;53.97;34.17;;;9.30;99.90;;;;;;5053630;28;20025;-58
2022/03/31 09:14:54;;;;;;;54.85;32.55;;;9.30;99.90;;;;;;5054351;28;20083;-60
2022/03/31 09:17:19;;;;;;;47.30;33.50;;;9.40;99.90;;;;;;5053786;28;20053;-59
2022/03/31 09:19:46;;;;;;;44.15;31.00;;;9.40;99.90;;;;;;5053694;28;20748;-59
2022/03/31 09:22:11;;;;;;;60.72;33.75;;;9.40;99.90;;;;;;5053814;28;20035;-61
2022/03/31 09:24:39;;;;;;;66.55;44.67;;;9.30;99.90;;;;;;5053864;28;20108;-60
2022/03/31 09:27:05;;;;;;;54.83;33.22;;;9.30;99.90;;;;;;5054255;28;20029;-60
2022/03/31 09:29:32;;;;;;;61.53;35.25;;;9.20;99.90;;;;;;5053670;28;20036;-60
2022/03/31 09:32:14;;;;;;;65.30;43.08;;;9.30;99.90;;;;;;5054300;28;20114;-59
2022/03/31 09:34:53;;;;;;;55.03;33.03;;;9.40;99.90;;;;;;5053331;28;20021;-60
2022/03/31 09:37:29;;;;;;;52.17;36.47;;;9.40;99.90;;;;;;5053401;28;20025;-60
2022/03/31 09:39:55;;;;;;;46.80;29.33;;;9.40;99.90;;;;;;5050973;28;20507;-59
2022/03/31 09:42:21;;;;;;;60.42;38.63;;;9.60;99.90;;;;;;5052857;28;20457;-59
2022/03/31 09:44:56;;;;;;;45.35;30.98;;;9.70;99.90;;;;;;5069642;28;20058;-59
2022/03/31 09:47:22;;;;;;;51.60;30.05;;;9.70;99.90;;;;;;5074164;28;20021;-59
2022/03/31 09:49:55;;;;;;;46.78;29.30;;;9.60;99.90;;;;;;5072754;28;20474;-60
2022/03/31 09:52:20;;;;;;;54.15;30.85;;;9.60;99.90;;;;;;5073802;28;20067;-59
2022/03/31 09:54:48;;;;;;;42.65;28.38;;;9.60;99.90;;;;;;5073525;28;20059;-60
2022/03/31 09:57:14;;;;;;;45.05;33.35;;;9.60;99.90;;;;;;5073595;28;20017;-58
2022/03/31 09:59:42;;;;;;;67.30;39.28;;;9.60;99.90;;;;;;5073768;28;20545;-59
2022/03/31 10:02:08;;;;;;;73.13;47.45;;;9.70;99.90;;;;;;5073398;28;20029;-58
2022/03/31 10:04:34;;;;;;;40.33;29.27;;;9.70;99.90;;;;;;5074066;28;20039;-58
2022/03/31 10:07:02;;;;;;;41.10;27.05;;;9.80;99.90;;;;;;5072944;28;20024;-60
2022/03/31 10:09:28;;;;;;;56.63;32.05;;;9.80;99.90;;;;;;5073438;28;20541;-60
2022/03/31 10:11:59;;;;;;;47.70;27.38;;;9.90;99.90;;;;;;5071683;28;20074;-59
2022/03/31 10:14:25;;;;;;;38.60;26.90;;;9.90;99.90;;;;;;5046739;28;20159;-59
2022/03/31 10:16:59;;;;;;;46.30;25.65;;;10.00;99.90;;;;;;5041447;28;20963;-60
2022/03/31 10:19:29;;;;;;;36.55;22.08;;;10.10;99.90;;;;;;5040226;28;20064;-60
2022/03/31 10:21:58;;;;;;;33.05;25.75;;;10.00;99.90;;;;;;5042285;28;20033;-58
2022/03/31 10:27:14;;;;;;;30.50;22.23;;;9.90;99.90;;;;;;5042895;28;20036;-57
2022/03/31 10:29:42;;;;;;;36.65;26.40;;;9.80;99.90;;;;;;5042669;28;20755;-59
2022/03/31 10:32:17;;;;;;;45.90;25.05;;;9.80;99.90;;;;;;5042263;28;20494;-59
2022/03/31 10:34:45;;;;;;;38.05;24.95;;;9.80;99.90;;;;;;5042117;28;20045;-59
2022/03/31 10:37:12;;;;;;;32.22;22.75;;;9.80;99.90;;;;;;5042807;28;20033;-58
2022/03/31 10:39:37;;;;;;;39.60;23.98;;;9.90;99.90;;;;;;5042960;28;20483;-57
2022/03/31 10:42:10;;;;;;;32.97;24.08;;;9.70;99.90;;;;;;5041678;28;20041;-59
2022/03/31 10:44:36;;;;;;;30.63;22.13;;;9.70;99.90;;;;;;5042237;28;20545;-58
2022/03/31 10:47:07;;;;;;;42.60;22.02;;;9.80;99.90;;;;;;5042385;28;20037;-58
2022/03/31 10:49:34;;;;;;;32.70;23.33;;;9.80;99.90;;;;;;5042143;28;20492;-59
2022/03/31 10:52:12;;;;;;;32.83;22.73;;;9.80;99.90;;;;;;5042370;28;20041;-59
2022/03/31 10:54:38;;;;;;;26.48;21.65;;;9.80;99.90;;;;;;5041924;28;20472;-60
2022/03/31 10:57:09;;;;;;;41.80;29.98;;;9.80;99.90;;;;;;5042288;28;20035;-59
2022/03/31 10:59:36;;;;;;;36.20;26.23;;;9.70;99.90;;;;;;5042282;28;20024;-59
2022/03/31 11:02:18;;;;;;;34.50;25.38;;;9.80;99.90;;;;;;5042117;28;20076;-59
2022/03/31 11:04:57;;;;;;;36.08;24.75;;;9.90;99.90;;;;;;5042140;28;20110;-59
2022/03/31 11:07:25;;;;;;;38.55;26.23;;;9.90;99.90;;;;;;5042337;28;20064;-59
2022/03/31 11:10:06;;;;;;;36.60;27.10;;;10.00;99.90;;;;;;5043326;28;20112;-59
2022/03/31 11:12:33;;;;;;;38.50;25.08;;;10.00;99.90;;;;;;5052584;28;20033;-58
2022/03/31 11:15:09;;;;;;;45.45;28.15;;;10.00;99.90;;;;;;5051997;28;20017;-59
2022/03/31 11:17:36;;;;;;;35.92;27.60;;;10.00;99.90;;;;;;5052101;28;20033;-60
2022/03/31 11:20:14;;;;;;;42.85;30.23;;;10.10;99.90;;;;;;5050673;28;20019;-59
2022/03/31 11:22:55;;;;;;;44.58;29.73;;;10.10;99.90;;;;;;5052060;28;20025;-59
2022/03/31 11:25:22;;;;;;;39.63;28.08;;;10.20;99.90;;;;;;5052238;28;20045;-59
2022/03/31 11:27:49;;;;;;;31.95;22.67;;;10.20;99.90;;;;;;5051189;28;20379;-59
2022/03/31 11:30:20;;;;;;;36.15;23.02;;;10.20;99.90;;;;;;5051306;28;20135;-59
2022/03/31 11:32:50;;;;;;;33.88;25.10;;;10.20;99.90;;;;;;5051204;28;20074;-59
2022/03/31 11:35:19;;;;;;;36.67;24.92;;;10.10;99.90;;;;;;5051842;28;20124;-57
2022/03/31 11:37:53;;;;;;;37.42;26.77;;;10.10;99.90;;;;;;5051942;28;20039;-59
2022/03/31 11:40:20;;;;;;;47.45;31.05;;;10.00;99.90;;;;;;5051980;28;20027;-61
2022/03/31 11:42:46;;;;;;;47.90;32.63;;;9.90;99.90;;;;;;5051854;28;20024;-58
2022/03/31 11:45:22;;;;;;;43.65;29.98;;;9.90;99.90;;;;;;5067399;28;20040;-60
2022/03/31 11:48:08;;;;;;;40.30;29.27;;;10.00;99.90;;;;;;5071625;28;20376;-59
2022/03/31 11:50:37;;;;;;;39.65;28.00;;;10.20;99.90;;;;;;5070698;28;20538;-60
2022/03/31 11:53:14;;;;;;;43.53;27.75;;;10.30;99.90;;;;;;5070793;28;20029;-60
2022/03/31 11:55:40;;;;;;;45.85;27.50;;;10.40;99.90;;;;;;5054498;28;20052;-59
2022/03/31 11:58:08;;;;;;;36.90;26.67;;;10.40;99.90;;;;;;5070748;28;20071;-59
2022/03/31 12:00:34;;;;;;;38.90;26.30;;;10.50;99.90;;;;;;5070960;28;20027;-59
2022/03/31 12:03:05;;;;;;;42.17;29.50;;;10.40;99.90;;;;;;5071146;28;20099;-59
2022/03/31 12:05:31;;;;;;;46.78;28.23;;;10.30;99.90;;;;;;5070912;28;20016;-58
2022/03/31 12:07:59;;;;;;;38.83;28.45;;;10.30;99.90;;;;;;5071475;28;20494;-59
2022/03/31 12:10:25;;;;;;;40.55;27.58;;;10.30;99.90;;;;;;5071386;28;20024;-58
2022/03/31 12:12:54;;;;;;;42.50;28.10;;;10.30;99.90;;;;;;5071462;28;20028;-59
2022/03/31 12:15:24;;;;;;;42.63;28.67;;;10.50;99.90;;;;;;5071243;28;20082;-59
2022/03/31 12:18:30;;;;;;;39.90;27.17;;;10.50;99.90;;;;;;5071290;28;20032;-59
2022/03/31 12:20:59;;;;;;;39.15;26.98;;;10.50;99.90;;;;;;5070827;28;20038;-59
2022/03/31 12:23:28;;;;;;;40.15;25.23;;;10.40;99.90;;;;;;5071125;28;20020;-59
2022/03/31 12:25:54;;;;;;;47.97;28.77;;;10.30;99.90;;;;;;5070922;28;20044;-58
2022/03/31 12:28:23;;;;;;;44.05;26.70;;;10.30;99.90;;;;;;5071178;28;20024;-58
2022/03/31 12:30:54;;;;;;;37.78;25.58;;;10.20;99.90;;;;;;5070906;28;20055;-59
2022/03/31 12:33:32;;;;;;;36.38;25.60;;;10.30;99.90;;;;;;5071296;28;20021;-59
2022/03/31 12:36:03;;;;;;;44.55;30.08;;;10.30;99.90;;;;;;5071018;28;20071;-59
2022/03/31 12:38:46;;;;;;;37.30;25.67;;;10.20;99.90;;;;;;5071148;28;20029;-59
2022/03/31 12:41:21;;;;;;;43.47;29.77;;;10.30;99.90;;;;;;5071086;28;20728;-58
2022/03/31 12:44:00;;;;;;;30.13;21.45;;;10.20;99.90;;;;;;5071246;28;20028;-59
2022/03/31 12:46:28;;;;;;;34.67;20.80;;;10.20;99.90;;;;;;5070947;28;20583;-59
2022/03/31 12:48:59;;;;;;;31.88;20.85;;;10.10;99.90;;;;;;5070694;28;20383;-59
2022/03/31 12:51:26;;;;;;;29.02;21.00;;;10.30;99.90;;;;;;5070626;28;20606;-59
2022/03/31 12:53:52;;;;;;;30.15;20.98;;;10.20;99.90;;;;;;5070722;28;20388;-59
2022/03/31 12:56:36;;;;;;;29.77;20.67;;;10.30;99.90;;;;;;5071003;28;20380;-58
2022/03/31 12:59:02;;;;;;;27.38;20.38;;;10.40;99.90;;;;;;5071169;28;20029;-59